Taiseimaru — JL6483 — position and weather

sailwx.info

Track history (hours):
 
Tides and Currents Weather Stations Pressure Air Temp Water Temp Dewpoint Dewpoint Depression Visibility Wind Speed Wind Dir Waves Ship Positions

Taiseimaru

Last reported at 2016-Dec-08 08:28 UTC. Time now 2016-Dec-10 07:01 UTC.
Position N 34°03' E 134°58'.

Length 84 m; draft 4.7 m.

Type: Cargo ship. MMSI: 431500568.

Date/timePositionNaut miles runAvg speedWind from/ knotsBaromVisibWave heightAir tempDewpointWater temp
2016-Dec-08 08:28N 34°03' E 134°58'1112.5
2016-Dec-08 07:33N 34°13' E 135°05'3 2.5
2016-Dec-08 06:32N 34°14' E 135°08'0 0.0
2016-Dec-08 05:33N 34°14' E 135°08'0 0.0
2016-Dec-08 04:33N 34°14' E 135°08'0 0.0
2016-Dec-08 03:34N 34°14' E 135°08'0 0.0
2016-Dec-08 02:34N 34°14' E 135°08'0 0.0
2016-Dec-08 01:34N 34°14' E 135°08'0 0.0
2016-Dec-08 00:33N 34°14' E 135°08'0 0.0
2016-Dec-07 23:34N 34°14' E 135°08'0 0.0
2016-Dec-07 22:33N 34°14' E 135°08'1 1.4
2016-Dec-07 21:34N 34°14' E 135°06'0 0.4
2016-Dec-07 20:31N 34°15' E 135°06'0 0.0
2016-Dec-07 19:25N 34°15' E 135°06'0 0.0
2016-Dec-07 18:31N 34°15' E 135°06'0 0.0
2016-Dec-07 17:31N 34°15' E 135°06'5 5.4
2016-Dec-07 16:33N 34°10' E 135°03'5 0.2
2016-Dec-06 18:33N 34°06' E 135°01'1010.0
2016-Dec-06 17:33N 34°14' E 135°08'0 0.2
2016-Dec-06 16:31N 34°14' E 135°08'0 0.0
2016-Dec-06 15:31N 34°14' E 135°08'0 0.0
2016-Dec-06 14:31N 34°14' E 135°08'0 0.0
2016-Dec-06 13:31N 34°14' E 135°08'0 0.0
2016-Dec-06 12:31N 34°14' E 135°08'0 0.0
2016-Dec-06 11:31N 34°14' E 135°08'0 0.0
2016-Dec-06 10:31N 34°14' E 135°08'2 2.4
2016-Dec-06 09:33N 34°15' E 135°05'1 0.6
2016-Dec-06 08:23N 34°15' E 135°05'0 0.0
2016-Dec-06 07:32N 34°15' E 135°05'0 0.0
2016-Dec-06 06:32N 34°15' E 135°05'0 0.0
2016-Dec-06 05:29N 34°15' E 135°05'0 0.0
2016-Dec-06 04:32N 34°15' E 135°05'0 0.0
2016-Dec-06 03:32N 34°15' E 135°05'0 0.0
2016-Dec-06 02:32N 34°15' E 135°05'0 0.0
2016-Dec-06 01:32N 34°15' E 135°05'0 0.0
2016-Dec-06 00:29N 34°15' E 135°05'0 0.0
2016-Dec-05 23:32N 34°15' E 135°05'0 0.0
2016-Dec-05 22:32N 34°15' E 135°05'0 0.0
2016-Dec-05 21:26N 34°15' E 135°05'0 0.0
2016-Dec-05 20:32N 34°15' E 135°05'0 0.1
2016-Dec-05 19:32N 34°15' E 135°05'0 0.0
2016-Dec-05 18:32N 34°15' E 135°05'1 1.4
2016-Dec-05 17:33N 34°14' E 135°05'1211.0
2016-Dec-05 16:27N 34°03' E 134°58'  
2016-Dec-02 21:30N 34°03' E 134°59'1112.1
2016-Dec-02 20:33N 34°13' E 135°05'3 2.6
2016-Dec-02 19:32N 34°14' E 135°08'0 0.0
2016-Dec-02 18:29N 34°14' E 135°08'0 0.0
2016-Dec-02 17:32N 34°14' E 135°08'0 0.0
2016-Dec-02 16:32N 34°14' E 135°08'0 0.0
2016-Dec-02 15:31N 34°14' E 135°08'0 0.0
2016-Dec-02 14:31N 34°14' E 135°08'0 0.0
2016-Dec-02 13:31N 34°14' E 135°08'0 0.0
2016-Dec-02 12:31N 34°14' E 135°08'0 0.0
2016-Dec-02 11:31N 34°14' E 135°08'0 0.0
2016-Dec-02 10:31N 34°14' E 135°08'0 0.0
2016-Dec-02 09:31N 34°14' E 135°08'0 0.0
2016-Dec-02 08:31N 34°14' E 135°08'1 0.6
2016-Dec-02 07:33N 34°14' E 135°07'9 9.4
2016-Dec-02 06:33N 34°06' E 135°01'5 0.1
2016-Nov-30 20:26N 34°02' E 134°58'1112.2
2016-Nov-30 19:33N 34°12' E 135°04'4 3.8
2016-Nov-30 18:33N 34°14' E 135°08'0 0.0
2016-Nov-30 17:33N 34°14' E 135°08'0 0.0
2016-Nov-30 16:33N 34°14' E 135°08'0 0.0
2016-Nov-30 15:33N 34°14' E 135°08'0 0.0
2016-Nov-30 14:33N 34°14' E 135°08'0 0.0
2016-Nov-30 13:33N 34°14' E 135°08'0 0.0
2016-Nov-30 12:33N 34°14' E 135°08'0 0.0
2016-Nov-30 11:33N 34°14' E 135°08'5 4.8
2016-Nov-30 10:33N 34°11' E 135°03'9 0.3
2016-Nov-29 01:33N 34°02' E 134°59'1110.9
2016-Nov-29 00:33N 34°10' E 135°08'0 0.0
2016-Nov-28 23:33N 34°10' E 135°08'0 0.0
2016-Nov-28 22:30N 34°10' E 135°08'0 0.1
2016-Nov-28 21:33N 34°10' E 135°08'0 0.0
2016-Nov-28 20:33N 34°10' E 135°08'0 0.0
2016-Nov-28 19:33N 34°10' E 135°08'0 0.0
2016-Nov-28 18:33N 34°10' E 135°08'4 4.0
2016-Nov-28 17:33N 34°14' E 135°08'0 0.1
2016-Nov-28 16:33N 34°14' E 135°08'0 0.0
2016-Nov-28 15:30N 34°14' E 135°08'0 0.0
2016-Nov-28 14:33N 34°14' E 135°08'0 0.0
2016-Nov-28 13:33N 34°14' E 135°08'0 0.0
2016-Nov-28 12:33N 34°14' E 135°08'0 0.3
2016-Nov-28 11:33N 34°14' E 135°08'9 9.2
2016-Nov-28 10:33N 34°07' E 135°01'  
Track history (hours):
 
Tides and Currents Weather Stations Pressure Air Temp Water Temp Dewpoint Dewpoint Depression Visibility Wind Speed Wind Dir Waves Ship Positions

Taiseimaru

Last reported at 2016-Dec-08 08:28 UTC. Time now 2016-Dec-10 07:01 UTC.
Position N 34°03' E 134°58'.

Length 84 m; draft 4.7 m.

Type: Cargo ship. MMSI: 431500568.

Date/timePositionNaut miles runAvg speedWind from/ knotsBaromVisibWave heightAir tempDewpointWater temp
2016-Dec-08 08:28N 34°03' E 134°58'1112.5
2016-Dec-08 07:33N 34°13' E 135°05'3 2.5
2016-Dec-08 06:32N 34°14' E 135°08'0 0.0
2016-Dec-08 05:33N 34°14' E 135°08'0 0.0
2016-Dec-08 04:33N 34°14' E 135°08'0 0.0
2016-Dec-08 03:34N 34°14' E 135°08'0 0.0
2016-Dec-08 02:34N 34°14' E 135°08'0 0.0
2016-Dec-08 01:34N 34°14' E 135°08'0 0.0
2016-Dec-08 00:33N 34°14' E 135°08'0 0.0
2016-Dec-07 23:34N 34°14' E 135°08'0 0.0
2016-Dec-07 22:33N 34°14' E 135°08'1 1.4
2016-Dec-07 21:34N 34°14' E 135°06'0 0.4
2016-Dec-07 20:31N 34°15' E 135°06'0 0.0
2016-Dec-07 19:25N 34°15' E 135°06'0 0.0
2016-Dec-07 18:31N 34°15' E 135°06'0 0.0
2016-Dec-07 17:31N 34°15' E 135°06'5 5.4
2016-Dec-07 16:33N 34°10' E 135°03'5 0.2
2016-Dec-06 18:33N 34°06' E 135°01'1010.0
2016-Dec-06 17:33N 34°14' E 135°08'0 0.2
2016-Dec-06 16:31N 34°14' E 135°08'0 0.0
2016-Dec-06 15:31N 34°14' E 135°08'0 0.0
2016-Dec-06 14:31N 34°14' E 135°08'0 0.0
2016-Dec-06 13:31N 34°14' E 135°08'0 0.0
2016-Dec-06 12:31N 34°14' E 135°08'0 0.0
2016-Dec-06 11:31N 34°14' E 135°08'0 0.0
2016-Dec-06 10:31N 34°14' E 135°08'2 2.4
2016-Dec-06 09:33N 34°15' E 135°05'1 0.6
2016-Dec-06 08:23N 34°15' E 135°05'0 0.0
2016-Dec-06 07:32N 34°15' E 135°05'0 0.0
2016-Dec-06 06:32N 34°15' E 135°05'0 0.0
2016-Dec-06 05:29N 34°15' E 135°05'0 0.0
2016-Dec-06 04:32N 34°15' E 135°05'0 0.0
2016-Dec-06 03:32N 34°15' E 135°05'0 0.0
2016-Dec-06 02:32N 34°15' E 135°05'0 0.0
2016-Dec-06 01:32N 34°15' E 135°05'0 0.0
2016-Dec-06 00:29N 34°15' E 135°05'0 0.0
2016-Dec-05 23:32N 34°15' E 135°05'0 0.0
2016-Dec-05 22:32N 34°15' E 135°05'0 0.0
2016-Dec-05 21:26N 34°15' E 135°05'0 0.0
2016-Dec-05 20:32N 34°15' E 135°05'0 0.1
2016-Dec-05 19:32N 34°15' E 135°05'0 0.0
2016-Dec-05 18:32N 34°15' E 135°05'1 1.4
2016-Dec-05 17:33N 34°14' E 135°05'1211.0
2016-Dec-05 16:27N 34°03' E 134°58'  
2016-Dec-02 21:30N 34°03' E 134°59'1112.1
2016-Dec-02 20:33N 34°13' E 135°05'3 2.6
2016-Dec-02 19:32N 34°14' E 135°08'0 0.0
2016-Dec-02 18:29N 34°14' E 135°08'0 0.0
2016-Dec-02 17:32N 34°14' E 135°08'0 0.0
2016-Dec-02 16:32N 34°14' E 135°08'0 0.0
2016-Dec-02 15:31N 34°14' E 135°08'0 0.0
2016-Dec-02 14:31N 34°14' E 135°08'0 0.0
2016-Dec-02 13:31N 34°14' E 135°08'0 0.0
2016-Dec-02 12:31N 34°14' E 135°08'0 0.0
2016-Dec-02 11:31N 34°14' E 135°08'0 0.0
2016-Dec-02 10:31N 34°14' E 135°08'0 0.0
2016-Dec-02 09:31N 34°14' E 135°08'0 0.0
2016-Dec-02 08:31N 34°14' E 135°08'1 0.6
2016-Dec-02 07:33N 34°14' E 135°07'9 9.4
2016-Dec-02 06:33N 34°06' E 135°01'5 0.1
2016-Nov-30 20:26N 34°02' E 134°58'1112.2
2016-Nov-30 19:33N 34°12' E 135°04'4 3.8
2016-Nov-30 18:33N 34°14' E 135°08'0 0.0
2016-Nov-30 17:33N 34°14' E 135°08'0 0.0
2016-Nov-30 16:33N 34°14' E 135°08'0 0.0
2016-Nov-30 15:33N 34°14' E 135°08'0 0.0
2016-Nov-30 14:33N 34°14' E 135°08'0 0.0
2016-Nov-30 13:33N 34°14' E 135°08'0 0.0
2016-Nov-30 12:33N 34°14' E 135°08'0 0.0
2016-Nov-30 11:33N 34°14' E 135°08'5 4.8
2016-Nov-30 10:33N 34°11' E 135°03'9 0.3
2016-Nov-29 01:33N 34°02' E 134°59'1110.9
2016-Nov-29 00:33N 34°10' E 135°08'0 0.0
2016-Nov-28 23:33N 34°10' E 135°08'0 0.0
2016-Nov-28 22:30N 34°10' E 135°08'0 0.1
2016-Nov-28 21:33N 34°10' E 135°08'0 0.0
2016-Nov-28 20:33N 34°10' E 135°08'0 0.0
2016-Nov-28 19:33N 34°10' E 135°08'0 0.0
2016-Nov-28 18:33N 34°10' E 135°08'4 4.0
2016-Nov-28 17:33N 34°14' E 135°08'0 0.1
2016-Nov-28 16:33N 34°14' E 135°08'0 0.0
2016-Nov-28 15:30N 34°14' E 135°08'0 0.0
2016-Nov-28 14:33N 34°14' E 135°08'0 0.0
2016-Nov-28 13:33N 34°14' E 135°08'0 0.0
2016-Nov-28 12:33N 34°14' E 135°08'0 0.3
2016-Nov-28 11:33N 34°14' E 135°08'9 9.2
2016-Nov-28 10:33N 34°07' E 135°01'  

Dump ship's entire track history